createdAt,value
2022-12-18T00:02:07.012Z,-7.87
2022-12-18T00:04:33.433Z,-7.87
2022-12-18T00:06:59.704Z,-7.74
2022-12-18T00:09:25.983Z,-7.64
2022-12-18T00:14:44.894Z,-7.80
2022-12-18T00:17:13.671Z,-7.86
2022-12-18T00:19:39.917Z,-7.92
2022-12-18T00:22:07.147Z,-8.03
2022-12-18T00:24:33.505Z,-8.17
2022-12-18T00:26:59.790Z,-8.11
2022-12-18T00:29:26.061Z,-8.17
2022-12-18T00:31:52.401Z,-8.28
2022-12-18T00:34:18.726Z,-8.45
2022-12-18T00:36:45.001Z,-8.54
2022-12-18T00:39:11.871Z,-8.66
2022-12-18T00:41:57.046Z,-8.68
2022-12-18T00:44:23.504Z,-8.81
2022-12-18T00:46:49.999Z,-8.87
2022-12-18T00:49:18.775Z,-8.67
2022-12-18T00:51:46.067Z,-8.55
2022-12-18T00:54:12.377Z,-8.76
2022-12-18T00:56:48.155Z,-8.79
2022-12-18T00:59:15.341Z,-8.87
2022-12-18T01:01:41.906Z,-8.82
2022-12-18T01:04:08.396Z,-8.91
2022-12-18T01:06:34.716Z,-9.07
2022-12-18T01:09:01.065Z,-9.06
2022-12-18T01:11:27.519Z,-9.04
2022-12-18T01:13:54.867Z,-9.06
2022-12-18T01:16:21.642Z,-9.15
2022-12-18T01:18:48.178Z,-9.26
2022-12-18T01:21:17.362Z,-9.37
2022-12-18T01:23:46.586Z,-9.48
2022-12-18T01:26:15.615Z,-9.60
2022-12-18T01:28:42.781Z,-9.37
2022-12-18T01:31:23.331Z,-8.94
2022-12-18T01:33:50.860Z,-9.16
2022-12-18T01:36:26.419Z,-9.29
2022-12-18T01:38:53.341Z,-9.14
2022-12-18T01:41:22.811Z,-9.24
2022-12-18T01:43:55.323Z,-9.46
2022-12-18T01:46:26.500Z,-9.62
2022-12-18T01:49:02.166Z,-9.77
2022-12-18T01:51:31.818Z,-9.87
2022-12-18T01:53:59.711Z,-10.03
2022-12-18T01:56:26.114Z,-10.05
2022-12-18T01:59:02.295Z,-10.07
2022-12-18T02:01:31.721Z,-9.81
2022-12-18T02:04:22.496Z,-9.83
2022-12-18T02:06:55.337Z,-9.80
2022-12-18T02:09:28.699Z,-9.78
2022-12-18T02:12:03.553Z,-9.76
2022-12-18T02:14:46.977Z,-9.81
2022-12-18T02:17:19.371Z,-9.91
2022-12-18T02:19:59.048Z,-10.04
2022-12-18T02:22:30.473Z,-10.08
2022-12-18T02:25:26.017Z,-10.16
2022-12-18T02:27:55.635Z,-10.24
2022-12-18T02:30:23.156Z,-10.31
2022-12-18T02:32:54.064Z,-10.34
2022-12-18T02:35:25.462Z,-10.39
2022-12-18T02:37:55.211Z,-10.46
2022-12-18T02:40:24.233Z,-10.53
2022-12-18T02:42:51.000Z,-10.58
2022-12-18T02:45:17.318Z,-10.59
2022-12-18T02:47:48.796Z,-10.64
2022-12-18T02:50:32.149Z,-10.60
2022-12-18T02:53:15.812Z,-10.57
2022-12-18T02:56:15.934Z,-10.42
2022-12-18T02:59:05.473Z,-10.29
2022-12-18T03:01:59.463Z,-10.29
2022-12-18T03:04:34.996Z,-10.25
2022-12-18T03:07:06.568Z,-10.23
2022-12-18T03:09:39.386Z,-10.08
2022-12-18T03:12:24.285Z,-10.18
2022-12-18T03:15:17.650Z,-10.26
2022-12-18T03:17:51.782Z,-10.28
2022-12-18T03:20:22.238Z,-10.40
2022-12-18T03:22:55.348Z,-10.47
2022-12-18T03:25:23.271Z,-10.58
2022-12-18T03:27:55.914Z,-10.61
2022-12-18T03:30:25.697Z,-10.54
2022-12-18T03:33:08.017Z,-10.55
2022-12-18T03:35:42.402Z,-10.60
2022-12-18T03:38:09.910Z,-10.66
2022-12-18T03:40:52.014Z,-10.72
2022-12-18T03:43:40.901Z,-10.84
2022-12-18T03:46:26.548Z,-10.79
2022-12-18T03:49:01.006Z,-10.74
2022-12-18T03:51:44.646Z,-10.65
2022-12-18T03:54:12.541Z,-10.62
2022-12-18T03:56:48.353Z,-10.50
2022-12-18T03:59:17.502Z,-10.41
2022-12-18T04:01:48.319Z,-10.43
2022-12-18T04:04:17.418Z,-10.50
2022-12-18T04:06:46.180Z,-10.61
2022-12-18T04:09:12.925Z,-10.75
2022-12-18T04:11:41.661Z,-10.86
2022-12-18T04:14:09.887Z,-10.94
2022-12-18T04:16:37.123Z,-11.00
2022-12-18T04:19:03.978Z,-11.01
2022-12-18T04:21:30.392Z,-11.08
2022-12-18T04:23:56.713Z,-11.20
2022-12-18T04:26:23.073Z,-10.99
2022-12-18T04:28:49.381Z,-10.78
2022-12-18T04:31:15.944Z,-10.87
2022-12-18T04:33:42.874Z,-10.95
2022-12-18T04:36:09.416Z,-10.96
2022-12-18T04:38:35.757Z,-10.96
2022-12-18T04:41:02.074Z,-10.84
2022-12-18T04:43:28.487Z,-10.77
2022-12-18T04:45:54.837Z,-10.82
2022-12-18T04:48:21.752Z,-10.83
2022-12-18T04:50:48.822Z,-10.78
2022-12-18T04:53:15.147Z,-10.68
2022-12-18T04:55:41.466Z,-10.56
2022-12-18T04:58:07.731Z,-10.58
2022-12-18T05:00:34.198Z,-10.60
2022-12-18T05:03:03.250Z,-10.62
2022-12-18T05:05:30.015Z,-10.68
2022-12-18T05:07:56.257Z,-10.65
2022-12-18T05:10:22.577Z,-10.76
2022-12-18T05:13:01.329Z,-10.83
2022-12-18T05:15:29.878Z,-10.96
2022-12-18T05:17:57.029Z,-11.01
2022-12-18T05:20:23.741Z,-11.09
2022-12-18T05:22:50.054Z,-11.15
2022-12-18T05:25:16.596Z,-11.16
2022-12-18T05:27:42.946Z,-11.14
2022-12-18T05:30:10.635Z,-11.04
2022-12-18T05:32:36.979Z,-10.96
2022-12-18T05:35:03.933Z,-10.90
2022-12-18T05:37:30.241Z,-10.55
2022-12-18T05:39:56.502Z,-10.36
2022-12-18T05:42:22.821Z,-10.34
2022-12-18T05:44:49.088Z,-10.30
2022-12-18T05:47:15.392Z,-10.05
2022-12-18T05:49:41.718Z,-9.89
2022-12-18T05:52:08.019Z,-9.91
2022-12-18T05:54:34.440Z,-9.97
2022-12-18T05:57:00.734Z,-10.04
2022-12-18T05:59:27.040Z,-10.20
2022-12-18T06:01:53.398Z,-10.36
2022-12-18T06:04:19.855Z,-10.56
2022-12-18T06:06:46.142Z,-10.65
2022-12-18T06:09:12.826Z,-10.65
2022-12-18T06:11:40.079Z,-10.75
2022-12-18T06:14:07.343Z,-10.69
2022-12-18T06:16:33.864Z,-10.77
2022-12-18T06:19:02.103Z,-10.90
2022-12-18T06:21:29.734Z,-10.97
2022-12-18T06:23:56.471Z,-11.05
2022-12-18T06:26:27.871Z,-11.12
2022-12-18T06:28:54.509Z,-10.94
2022-12-18T06:31:20.892Z,-10.96
2022-12-18T06:33:47.204Z,-10.69
2022-12-18T06:36:14.080Z,-10.78
2022-12-18T06:38:43.814Z,-10.66
2022-12-18T06:41:15.448Z,-10.65
2022-12-18T06:43:42.959Z,-10.71
2022-12-18T06:46:09.617Z,-10.73
2022-12-18T06:48:36.057Z,-10.74
2022-12-18T06:51:02.577Z,-10.78
2022-12-18T06:53:29.247Z,-10.84
2022-12-18T06:56:10.431Z,-10.79
2022-12-18T06:58:37.665Z,-10.88
2022-12-18T07:01:06.401Z,-11.02
2022-12-18T07:03:33.132Z,-10.99
2022-12-18T07:05:59.376Z,-10.91
2022-12-18T07:08:25.726Z,-10.91
2022-12-18T07:10:56.088Z,-10.60
2022-12-18T07:13:23.502Z,-10.54
2022-12-18T07:15:49.829Z,-10.34
2022-12-18T07:18:16.202Z,-10.12
2022-12-18T07:20:42.478Z,-9.95
2022-12-18T07:23:08.736Z,-9.78
2022-12-18T07:25:38.279Z,-9.71
2022-12-18T07:28:05.176Z,-9.61
2022-12-18T07:30:31.494Z,-9.59
2022-12-18T07:32:57.798Z,-9.57
2022-12-18T07:35:25.366Z,-9.59
2022-12-18T07:37:52.213Z,-9.45
2022-12-18T07:40:18.553Z,-9.51
2022-12-18T07:42:44.871Z,-9.55
2022-12-18T07:45:11.785Z,-9.53
2022-12-18T07:47:38.188Z,-9.56
2022-12-18T07:50:06.190Z,-9.59
2022-12-18T07:52:32.453Z,-9.56
2022-12-18T07:54:59.401Z,-9.63
2022-12-18T07:57:49.583Z,-9.71
2022-12-18T08:00:13.175Z,-9.62
2022-12-18T08:02:39.690Z,-9.50
2022-12-18T08:05:06.191Z,-9.46
2022-12-18T08:07:33.487Z,-9.31
2022-12-18T08:09:59.782Z,-9.21
2022-12-18T08:12:26.131Z,-9.23
2022-12-18T08:14:52.407Z,-9.16
2022-12-18T08:17:20.414Z,-9.03
2022-12-18T08:19:46.664Z,-9.03
2022-12-18T08:22:12.941Z,-8.92
2022-12-18T08:24:39.269Z,-8.86
2022-12-18T08:27:29.451Z,-8.83
2022-12-18T08:29:51.804Z,-8.85
2022-12-18T08:32:18.103Z,-8.87
2022-12-18T08:34:44.435Z,-8.91
2022-12-18T08:37:10.693Z,-8.90
2022-12-18T08:39:36.959Z,-8.73
2022-12-18T08:42:22.183Z,-8.73
2022-12-18T08:44:48.479Z,-8.70
2022-12-18T08:47:14.759Z,-8.67
2022-12-18T08:49:41.460Z,-8.53
2022-12-18T08:52:07.711Z,-8.57
2022-12-18T08:54:34.000Z,-8.52
2022-12-18T08:57:00.282Z,-8.48
2022-12-18T08:59:29.478Z,-8.27
2022-12-18T09:01:56.336Z,-8.16
2022-12-18T09:04:23.556Z,-8.01
2022-12-18T09:06:49.857Z,-7.90
2022-12-18T09:09:16.392Z,-7.78
2022-12-18T09:11:42.755Z,-7.60
2022-12-18T09:14:10.516Z,-7.44
2022-12-18T09:16:36.926Z,-7.14
2022-12-18T09:19:05.210Z,-7.05
2022-12-18T09:21:34.412Z,-7.08
2022-12-18T09:24:03.371Z,-6.97
2022-12-18T09:26:29.995Z,-6.87
2022-12-18T09:28:56.807Z,-6.70
2022-12-18T09:31:24.664Z,-6.59
2022-12-18T09:33:51.876Z,-6.40
2022-12-18T09:36:19.278Z,-6.29
2022-12-18T09:38:46.375Z,-6.05
2022-12-18T09:41:42.302Z,-5.78
2022-12-18T09:44:19.217Z,-5.62
2022-12-18T09:46:53.308Z,-5.53
2022-12-18T09:49:23.594Z,-5.41
2022-12-18T09:52:08.728Z,-5.33
2022-12-18T09:54:45.621Z,-5.36
2022-12-18T09:57:19.444Z,-5.40
2022-12-18T09:59:52.706Z,-5.37
2022-12-18T10:02:22.495Z,-5.38
2022-12-18T10:05:03.827Z,-5.33
2022-12-18T10:07:56.135Z,-5.27
2022-12-18T10:10:31.961Z,-5.27
2022-12-18T10:13:25.049Z,-5.19
2022-12-18T10:16:14.295Z,-5.17
2022-12-18T10:19:21.044Z,-5.09
2022-12-18T10:22:15.569Z,-4.97
2022-12-18T10:24:59.213Z,-4.92
2022-12-18T10:27:27.577Z,-4.75
2022-12-18T10:29:54.938Z,-4.66
2022-12-18T10:32:24.235Z,-4.60
2022-12-18T10:34:56.716Z,-4.62
2022-12-18T10:37:29.080Z,-4.53
2022-12-18T10:40:21.976Z,-4.52
2022-12-18T10:43:04.850Z,-4.34
2022-12-18T10:45:31.126Z,-4.47
2022-12-18T10:47:57.457Z,-4.53
2022-12-18T10:50:53.977Z,-4.51
2022-12-18T10:53:26.401Z,-4.36
2022-12-18T10:55:55.355Z,-4.42
2022-12-18T10:58:35.109Z,-4.35
2022-12-18T11:01:05.721Z,-4.24
2022-12-18T11:03:43.197Z,-4.09
2022-12-18T11:06:14.018Z,-3.97
2022-12-18T11:08:42.854Z,-3.83
2022-12-18T11:11:21.939Z,-3.69
2022-12-18T11:14:00.668Z,-3.41
2022-12-18T11:16:28.421Z,-3.35
2022-12-18T11:19:11.382Z,-3.38
2022-12-18T11:21:42.510Z,-3.34
2022-12-18T11:24:21.155Z,-3.39
2022-12-18T11:26:48.671Z,-3.45
2022-12-18T11:29:24.338Z,-3.65
2022-12-18T11:31:50.711Z,-3.68
2022-12-18T11:34:31.297Z,-3.56
2022-12-18T11:37:01.706Z,-3.38
2022-12-18T11:39:50.391Z,-2.99
2022-12-18T11:42:33.610Z,-2.67
2022-12-18T11:45:09.133Z,-2.59
2022-12-18T11:47:44.963Z,-2.46
2022-12-18T11:50:17.599Z,-2.59
2022-12-18T11:52:44.025Z,-2.66
2022-12-18T11:55:24.858Z,-2.84
2022-12-18T11:58:06.183Z,-2.86
2022-12-18T12:00:35.374Z,-2.97
2022-12-18T12:03:39.959Z,-3.02
2022-12-18T12:06:09.374Z,-3.18
2022-12-18T12:08:50.857Z,-3.23
2022-12-18T12:11:49.202Z,-3.18
2022-12-18T12:14:18.528Z,-2.97
2022-12-18T12:16:47.832Z,-2.96
2022-12-18T12:19:33.677Z,-3.02
2022-12-18T12:22:36.333Z,-2.98
2022-12-18T12:25:19.796Z,-3.10
2022-12-18T12:28:01.323Z,-3.18
2022-12-18T12:31:09.774Z,-3.37
2022-12-18T12:33:44.847Z,-3.37
2022-12-18T12:36:30.346Z,-3.50
2022-12-18T12:39:01.553Z,-3.36
2022-12-18T12:41:52.502Z,-3.34
2022-12-18T12:44:24.976Z,-3.32
2022-12-18T12:46:56.034Z,-3.32
2022-12-18T12:49:26.591Z,-3.42
2022-12-18T12:52:12.005Z,-3.35
2022-12-18T12:54:38.890Z,-3.31
2022-12-18T12:57:25.522Z,-3.39
2022-12-18T13:00:15.612Z,-3.44
2022-12-18T13:02:48.329Z,-3.63
2022-12-18T13:05:23.755Z,-3.66
2022-12-18T13:08:11.066Z,-3.74
2022-12-18T13:10:40.730Z,-3.72
2022-12-18T13:13:47.039Z,-3.78
2022-12-18T13:16:08.897Z,-3.62
2022-12-18T13:18:35.972Z,-3.55
2022-12-18T13:21:21.233Z,-3.58
2022-12-18T13:23:48.527Z,-3.61
2022-12-18T13:26:20.792Z,-3.65
2022-12-18T13:28:57.866Z,-3.86
2022-12-18T13:31:30.595Z,-3.81
2022-12-18T13:34:28.001Z,-4.04
2022-12-18T13:37:17.804Z,-3.90
2022-12-18T13:39:44.284Z,-3.91
2022-12-18T13:42:30.711Z,-3.99
2022-12-18T13:44:57.028Z,-3.89
2022-12-18T13:47:36.034Z,-3.90
2022-12-18T13:50:29.733Z,-3.92
2022-12-18T13:53:00.417Z,-3.86
2022-12-18T13:55:26.805Z,-3.88
2022-12-18T13:58:04.920Z,-3.82
2022-12-18T14:00:31.310Z,-3.71
2022-12-18T14:02:59.696Z,-3.82
2022-12-18T14:05:30.926Z,-3.88
2022-12-18T14:08:02.617Z,-3.80
2022-12-18T14:10:48.334Z,-3.90
2022-12-18T14:13:29.028Z,-4.02
2022-12-18T14:15:57.089Z,-3.97
2022-12-18T14:18:48.833Z,-3.90
2022-12-18T14:21:22.577Z,-4.01
2022-12-18T14:23:49.126Z,-4.02
2022-12-18T14:26:30.649Z,-4.14
2022-12-18T14:28:58.916Z,-4.22
2022-12-18T14:31:27.787Z,-4.31
2022-12-18T14:33:54.417Z,-4.31
2022-12-18T14:36:24.102Z,-4.37
2022-12-18T14:38:54.525Z,-4.45
2022-12-18T14:41:22.106Z,-4.44
2022-12-18T14:43:50.515Z,-4.49
2022-12-18T14:46:28.835Z,-4.49
2022-12-18T14:48:55.998Z,-4.41
2022-12-18T14:51:27.542Z,-4.34
2022-12-18T14:54:04.210Z,-4.49
2022-12-18T14:56:36.783Z,-4.56
2022-12-18T14:59:15.202Z,-4.52
2022-12-18T15:01:55.863Z,-4.65
2022-12-18T15:04:44.466Z,-4.57
2022-12-18T15:07:15.620Z,-4.70
2022-12-18T15:09:45.603Z,-4.64
2022-12-18T15:12:26.817Z,-4.74
2022-12-18T15:14:53.173Z,-4.83
2022-12-18T15:17:23.876Z,-4.74
2022-12-18T15:20:01.579Z,-4.84
2022-12-18T15:22:34.924Z,-4.85
2022-12-18T15:25:02.180Z,-4.87
2022-12-18T15:27:28.491Z,-4.88
2022-12-18T15:30:25.141Z,-4.95
2022-12-18T15:32:53.025Z,-4.90
2022-12-18T15:35:25.218Z,-4.88
2022-12-18T15:37:53.118Z,-4.88
2022-12-18T15:40:24.769Z,-4.93
2022-12-18T15:43:13.533Z,-5.00
2022-12-18T15:45:40.006Z,-5.05
2022-12-18T15:48:24.616Z,-4.99
2022-12-18T15:50:52.783Z,-5.03
2022-12-18T15:53:19.892Z,-4.86
2022-12-18T15:56:04.721Z,-4.81
2022-12-18T15:58:31.198Z,-4.85
2022-12-18T16:01:00.344Z,-4.76
2022-12-18T16:03:26.810Z,-4.93
2022-12-18T16:05:53.139Z,-4.92
2022-12-18T16:08:20.614Z,-4.84
2022-12-18T16:10:47.062Z,-4.85
2022-12-18T16:13:19.072Z,-4.83
2022-12-18T16:15:45.414Z,-4.87
2022-12-18T16:18:11.841Z,-4.89
2022-12-18T16:20:39.436Z,-4.86
2022-12-18T16:23:05.778Z,-4.79
2022-12-18T16:25:32.645Z,-4.79
2022-12-18T16:27:58.928Z,-4.78
2022-12-18T16:30:28.812Z,-4.78
2022-12-18T16:32:59.632Z,-4.75
2022-12-18T16:35:27.600Z,-4.63
2022-12-18T16:37:54.011Z,-4.64
2022-12-18T16:40:20.407Z,-4.61
2022-12-18T16:42:47.029Z,-4.63
2022-12-18T16:45:17.105Z,-4.55
2022-12-18T16:47:44.985Z,-4.59
2022-12-18T16:50:12.007Z,-4.57
2022-12-18T16:52:38.634Z,-4.36
2022-12-18T16:55:05.402Z,-4.36
2022-12-18T16:57:31.794Z,-4.20
2022-12-18T17:00:04.431Z,-4.19
2022-12-18T17:02:31.545Z,-4.21
2022-12-18T17:04:59.009Z,-4.22
2022-12-18T17:07:26.907Z,-4.15
2022-12-18T17:09:54.205Z,-4.05
2022-12-18T17:12:20.985Z,-4.11
2022-12-18T17:14:47.319Z,-4.05
2022-12-18T17:17:22.596Z,-4.04
2022-12-18T17:19:50.974Z,-4.03
2022-12-18T17:22:17.328Z,-4.11
2022-12-18T17:24:43.677Z,-4.00
2022-12-18T17:27:09.970Z,-4.15
2022-12-18T17:29:36.298Z,-4.12
2022-12-18T17:32:02.655Z,-4.07
2022-12-18T17:34:29.015Z,-4.05
2022-12-18T17:36:56.679Z,-4.05
2022-12-18T17:39:23.293Z,-4.04
2022-12-18T17:41:49.690Z,-4.06
2022-12-18T17:44:16.533Z,-3.93
2022-12-18T17:46:43.677Z,-3.91
2022-12-18T17:49:11.169Z,-3.96
2022-12-18T17:51:37.789Z,-3.84
2022-12-18T17:54:05.234Z,-3.87
2022-12-18T17:56:31.582Z,-3.82
2022-12-18T17:58:58.505Z,-3.82
2022-12-18T18:01:25.857Z,-3.69
2022-12-18T18:03:55.810Z,-3.76
2022-12-18T18:06:23.345Z,-3.71
2022-12-18T18:08:50.101Z,-3.63
2022-12-18T18:11:37.220Z,-3.60
2022-12-18T18:14:06.886Z,-3.63
2022-12-18T18:16:36.568Z,-3.54
2022-12-18T18:19:14.291Z,-3.56
2022-12-18T18:21:43.064Z,-3.59
2022-12-18T18:24:10.867Z,-3.49
2022-12-18T18:26:37.685Z,-3.62
2022-12-18T18:29:06.285Z,-3.49
2022-12-18T18:31:41.348Z,-3.48
2022-12-18T18:34:08.435Z,-3.51
2022-12-18T18:36:34.807Z,-3.56
2022-12-18T18:39:01.794Z,-3.54
2022-12-18T18:41:29.884Z,-3.45
2022-12-18T18:43:57.844Z,-3.47
2022-12-18T18:46:24.541Z,-3.41
2022-12-18T18:48:50.935Z,-3.37
2022-12-18T18:51:21.742Z,-3.33
2022-12-18T18:53:49.853Z,-3.44
2022-12-18T18:59:05.139Z,-3.48
2022-12-18T19:01:31.560Z,-3.40
2022-12-18T19:03:57.959Z,-3.37
2022-12-18T19:06:27.824Z,-3.39
2022-12-18T19:08:56.365Z,-3.33
2022-12-18T19:11:43.856Z,-3.32
2022-12-18T19:14:13.398Z,-3.24
2022-12-18T19:16:40.620Z,-3.14
2022-12-18T19:19:07.647Z,-3.25
2022-12-18T19:21:35.022Z,-3.16
2022-12-18T19:24:02.626Z,-3.11
2022-12-18T19:26:29.671Z,-3.22
2022-12-18T19:29:04.351Z,-3.12
2022-12-18T19:31:35.678Z,-3.14
2022-12-18T19:34:03.255Z,-3.14
2022-12-18T19:36:30.955Z,-3.09
2022-12-18T19:38:59.715Z,-3.16
2022-12-18T19:41:27.579Z,-3.09
2022-12-18T19:43:57.049Z,-3.05
2022-12-18T19:46:23.947Z,-3.10
2022-12-18T19:48:51.578Z,-3.14
2022-12-18T19:51:21.403Z,-3.16
2022-12-18T19:53:48.144Z,-3.11
2022-12-18T19:56:19.757Z,-3.15
2022-12-18T19:58:46.810Z,-3.20
2022-12-18T20:01:16.426Z,-3.20
2022-12-18T20:03:44.564Z,-3.17
2022-12-18T20:06:36.090Z,-3.12
2022-12-18T20:09:05.395Z,-3.11
2022-12-18T20:11:33.006Z,-2.99
2022-12-18T20:14:01.934Z,-3.14
2022-12-18T20:16:28.485Z,-3.15
2022-12-18T20:18:55.930Z,-3.21
2022-12-18T20:21:22.454Z,-3.21
2022-12-18T20:23:48.853Z,-3.21
2022-12-18T20:26:15.195Z,-3.34
2022-12-18T20:28:42.327Z,-3.20
2022-12-18T20:31:10.339Z,-3.26
2022-12-18T20:33:37.294Z,-3.17
2022-12-18T20:36:07.558Z,-3.11
2022-12-18T20:38:35.360Z,-3.15
2022-12-18T20:41:02.577Z,-3.03
2022-12-18T20:43:29.903Z,-3.14
2022-12-18T20:46:03.518Z,-2.98
2022-12-18T20:48:30.470Z,-2.96
2022-12-18T20:51:03.681Z,-2.89
2022-12-18T20:53:30.598Z,-2.89
2022-12-18T20:55:56.998Z,-2.90
2022-12-18T20:58:23.430Z,-2.80
2022-12-18T21:00:49.910Z,-2.83
2022-12-18T21:03:16.394Z,-2.84
2022-12-18T21:05:42.787Z,-2.80
2022-12-18T21:08:09.629Z,-2.71
2022-12-18T21:10:37.946Z,-2.74
2022-12-18T21:13:06.050Z,-2.69
2022-12-18T21:15:34.195Z,-2.70
2022-12-18T21:18:00.685Z,-2.61
2022-12-18T21:20:27.142Z,-2.63
2022-12-18T21:22:54.048Z,-2.62
2022-12-18T21:25:23.646Z,-2.66
2022-12-18T21:27:49.991Z,-2.74
2022-12-18T21:30:16.838Z,-2.80
2022-12-18T21:32:43.231Z,-2.89
2022-12-18T21:35:09.633Z,-2.88
2022-12-18T21:37:38.261Z,-2.95
2022-12-18T21:40:05.947Z,-2.95
2022-12-18T21:42:50.992Z,-2.93
2022-12-18T21:45:17.291Z,-2.79
2022-12-18T21:47:43.649Z,-2.81
2022-12-18T21:50:09.929Z,-2.89
2022-12-18T21:52:36.189Z,-2.80
2022-12-18T21:55:09.354Z,-2.69
2022-12-18T21:57:37.061Z,-2.68
2022-12-18T22:00:04.766Z,-2.58
2022-12-18T22:02:31.771Z,-2.56
2022-12-18T22:04:58.348Z,-2.60
2022-12-18T22:07:24.787Z,-2.62
2022-12-18T22:09:51.089Z,-2.64
2022-12-18T22:12:35.074Z,-2.58
2022-12-18T22:15:04.234Z,-2.57
2022-12-18T22:17:30.566Z,-2.61
2022-12-18T22:19:56.999Z,-2.61
2022-12-18T22:22:23.378Z,-2.55
2022-12-18T22:24:49.648Z,-2.55
2022-12-18T22:27:15.905Z,-2.40
2022-12-18T22:30:00.878Z,-2.47
2022-12-18T22:32:31.229Z,-2.46
2022-12-18T22:35:07.927Z,-2.52
2022-12-18T22:37:37.202Z,-2.50
2022-12-18T22:40:05.420Z,-2.47
2022-12-18T22:42:32.472Z,-2.47
2022-12-18T22:45:00.054Z,-2.45
2022-12-18T22:47:29.753Z,-2.44
2022-12-18T22:49:56.862Z,-2.37
2022-12-18T22:52:24.718Z,-2.38
2022-12-18T22:54:51.346Z,-2.44
2022-12-18T22:57:20.497Z,-2.43
2022-12-18T22:59:46.830Z,-2.46
2022-12-18T23:02:13.292Z,-2.43
2022-12-18T23:04:39.740Z,-2.35
2022-12-18T23:07:06.306Z,-2.38
2022-12-18T23:09:33.713Z,-2.34
2022-12-18T23:12:01.058Z,-2.24
2022-12-18T23:14:28.723Z,-2.32
2022-12-18T23:16:55.502Z,-2.34
2022-12-18T23:19:23.467Z,-2.31
2022-12-18T23:21:50.398Z,-2.33
2022-12-18T23:24:16.674Z,-2.22
2022-12-18T23:26:43.148Z,-2.29
2022-12-18T23:29:09.444Z,-2.32
2022-12-18T23:31:38.734Z,-2.25
2022-12-18T23:34:06.751Z,-2.25
2022-12-18T23:36:45.854Z,-2.29
2022-12-18T23:39:12.739Z,-2.25
2022-12-18T23:41:54.865Z,-2.29
2022-12-18T23:44:21.227Z,-2.33
2022-12-18T23:46:47.575Z,-2.36
2022-12-18T23:49:13.880Z,-2.30
2022-12-18T23:51:40.179Z,-2.23
2022-12-18T23:54:06.482Z,-2.60
2022-12-18T23:56:35.586Z,-2.27
2022-12-18T23:59:01.902Z,-2.28
